createdAt,value
2018-11-05T00:00:49.152Z,100845.09
2018-11-05T00:01:54.625Z,100842.85
2018-11-05T00:03:00.163Z,100845.84
2018-11-05T00:04:05.917Z,100844.59
2018-11-05T00:05:11.958Z,100839.12
2018-11-05T00:06:17.382Z,100842.62
2018-11-05T00:07:22.870Z,100842.20
2018-11-05T00:08:28.364Z,100837.59
2018-11-05T00:09:33.845Z,100844.44
2018-11-05T00:10:39.267Z,100838.49
2018-11-05T00:11:44.785Z,100847.47
2018-11-05T00:12:50.356Z,100841.56
2018-11-05T00:13:55.785Z,100844.64
2018-11-05T00:15:01.278Z,100841.23
2018-11-05T00:16:06.909Z,100844.38
2018-11-05T00:17:12.393Z,100840.64
2018-11-05T00:18:17.857Z,100842.38
2018-11-05T00:19:23.323Z,100841.95
2018-11-05T00:20:28.772Z,100839.03
2018-11-05T00:21:34.210Z,100836.86
2018-11-05T00:22:39.785Z,100838.08
2018-11-05T00:23:45.220Z,100839.84
2018-11-05T00:24:50.663Z,100836.33
2018-11-05T00:25:56.151Z,100838.41
2018-11-05T00:27:01.654Z,100835.00
2018-11-05T00:28:07.398Z,100837.20
2018-11-05T00:29:12.890Z,100835.98
2018-11-05T00:30:18.334Z,100837.27
2018-11-05T00:31:23.777Z,100837.22
2018-11-05T00:32:29.239Z,100832.93
2018-11-05T00:33:34.836Z,100828.28
2018-11-05T00:34:40.381Z,100822.78
2018-11-05T00:35:45.922Z,100820.57
2018-11-05T00:36:51.485Z,100814.19
2018-11-05T00:37:56.933Z,100819.20
2018-11-05T00:39:02.512Z,100822.02
2018-11-05T00:40:11.537Z,100820.74
2018-11-05T00:41:16.985Z,100823.75
2018-11-05T00:42:22.547Z,100827.13
2018-11-05T00:43:28.040Z,100830.45
2018-11-05T00:44:33.512Z,100829.23
2018-11-05T00:45:39.092Z,100833.98
2018-11-05T00:46:44.593Z,100836.52
2018-11-05T00:47:50.221Z,100838.66
2018-11-05T00:48:55.659Z,100839.12
2018-11-05T00:50:01.144Z,100839.12
2018-11-05T00:51:06.726Z,100845.95
2018-11-05T00:52:12.181Z,100841.56
2018-11-05T00:53:17.705Z,100837.39
2018-11-05T00:54:23.112Z,100830.20
2018-11-05T00:55:28.647Z,100839.63
2018-11-05T00:56:34.620Z,100827.76
2018-11-05T00:57:40.066Z,100824.80
2018-11-05T00:58:45.500Z,100823.45
2018-11-05T00:59:50.945Z,100823.47
2018-11-05T01:00:56.384Z,100820.02
2018-11-05T01:02:01.871Z,100817.77
2018-11-05T01:03:07.391Z,100822.50
2018-11-05T01:04:12.851Z,100819.59
2018-11-05T01:05:18.405Z,100825.09
2018-11-05T01:06:23.946Z,100825.56
2018-11-05T01:07:29.428Z,100829.00
2018-11-05T01:08:34.853Z,100828.13
2018-11-05T01:09:40.333Z,100832.45
2018-11-05T01:10:45.838Z,100826.52
2018-11-05T01:11:51.461Z,100824.80
2018-11-05T01:12:56.995Z,100821.85
2018-11-05T01:14:02.419Z,100818.94
2018-11-05T01:15:11.735Z,100823.14
2018-11-05T01:16:17.160Z,100825.73
2018-11-05T01:17:22.608Z,100821.49
2018-11-05T01:18:28.145Z,100817.70
2018-11-05T01:19:33.625Z,100813.92
2018-11-05T01:20:39.184Z,100811.89
2018-11-05T01:21:44.642Z,100812.28
2018-11-05T01:22:50.140Z,100812.31
2018-11-05T01:23:55.636Z,100809.37
2018-11-05T01:25:01.084Z,100807.26
2018-11-05T01:26:06.718Z,100809.48
2018-11-05T01:27:12.141Z,100809.06
2018-11-05T01:28:17.656Z,100812.53
2018-11-05T01:29:23.170Z,100812.56
2018-11-05T01:30:28.606Z,100807.08
2018-11-05T01:31:34.158Z,100807.96
2018-11-05T01:32:39.673Z,100804.50
2018-11-05T01:33:45.183Z,100808.35
2018-11-05T01:34:50.632Z,100809.66
2018-11-05T01:35:56.121Z,100811.36
2018-11-05T01:37:01.657Z,100816.48
2018-11-05T01:38:07.121Z,100810.98
2018-11-05T01:39:12.668Z,100807.08
2018-11-05T01:40:18.117Z,100807.06
2018-11-05T01:41:23.593Z,100801.52
2018-11-05T01:42:29.144Z,100801.05
2018-11-05T01:43:34.564Z,100801.02
2018-11-05T01:44:40.057Z,100798.84
2018-11-05T01:45:45.512Z,100802.30
2018-11-05T01:46:50.984Z,100798.08
2018-11-05T01:47:56.468Z,100799.79
2018-11-05T01:49:02.451Z,100798.58
2018-11-05T01:50:10.252Z,100799.42
2018-11-05T01:51:15.752Z,100790.10
2018-11-05T01:52:21.166Z,100793.48
2018-11-05T01:53:26.661Z,100789.20
2018-11-05T01:54:32.218Z,100794.30
2018-11-05T01:55:37.756Z,100791.32
2018-11-05T01:56:43.321Z,100788.75
2018-11-05T01:57:48.876Z,100789.66
2018-11-05T01:58:54.322Z,100788.91
2018-11-05T01:59:59.841Z,100780.05
2018-11-05T02:01:05.852Z,100783.45
2018-11-05T02:02:11.339Z,100782.13
2018-11-05T02:03:16.761Z,100774.86
2018-11-05T02:04:22.192Z,100771.92
2018-11-05T02:05:27.656Z,100774.01
2018-11-05T02:06:33.154Z,100768.89
2018-11-05T02:07:38.594Z,100767.19
2018-11-05T02:08:44.120Z,100764.64
2018-11-05T02:09:49.589Z,100764.55
2018-11-05T02:10:55.029Z,100762.89
2018-11-05T02:12:00.591Z,100766.77
2018-11-05T02:13:06.170Z,100769.36
2018-11-05T02:14:11.752Z,100763.37
2018-11-05T02:15:17.216Z,100763.79
2018-11-05T02:16:22.688Z,100766.36
2018-11-05T02:17:28.180Z,100770.64
2018-11-05T02:18:33.639Z,100771.06
2018-11-05T02:19:39.178Z,100774.48
2018-11-05T02:20:44.672Z,100770.22
2018-11-05T02:21:50.117Z,100768.15
2018-11-05T02:22:55.577Z,100766.77
2018-11-05T02:24:00.993Z,100766.37
2018-11-05T02:25:07.970Z,100765.44
2018-11-05T02:26:13.644Z,100763.73
2018-11-05T02:27:19.128Z,100759.88
2018-11-05T02:28:24.631Z,100760.44
2018-11-05T02:29:30.160Z,100762.61
2018-11-05T02:30:35.645Z,100758.39
2018-11-05T02:31:41.104Z,100760.13
2018-11-05T02:32:47.448Z,100760.02
2018-11-05T02:33:52.914Z,100751.55
2018-11-05T02:34:58.459Z,100757.08
2018-11-05T02:36:03.951Z,100764.64
2018-11-05T02:37:09.470Z,100757.81
2018-11-05T02:38:14.902Z,100756.98
2018-11-05T02:39:20.369Z,100749.01
2018-11-05T02:40:25.805Z,100746.09
2018-11-05T02:41:31.231Z,100744.36
2018-11-05T02:42:36.682Z,100742.17
2018-11-05T02:43:42.285Z,100743.77
2018-11-05T02:44:47.949Z,100742.44
2018-11-05T02:45:53.352Z,100738.09
2018-11-05T02:46:58.884Z,100739.34
2018-11-05T02:48:04.369Z,100736.77
2018-11-05T02:49:09.915Z,100738.42
2018-11-05T02:50:16.096Z,100733.75
2018-11-05T02:51:21.532Z,100734.95
2018-11-05T02:52:26.932Z,100732.02
2018-11-05T02:53:32.439Z,100737.95
2018-11-05T02:54:37.930Z,100743.52
2018-11-05T02:55:43.408Z,100748.52
2018-11-05T02:56:48.824Z,100751.95
2018-11-05T02:57:54.243Z,100752.39
2018-11-05T02:58:59.686Z,100746.03
2018-11-05T03:00:07.208Z,100740.42
2018-11-05T03:01:12.817Z,100740.42
2018-11-05T03:02:18.200Z,100751.91
2018-11-05T03:03:23.779Z,100749.73
2018-11-05T03:04:29.095Z,100756.97
2018-11-05T03:05:34.509Z,100750.59
2018-11-05T03:06:39.994Z,100757.75
2018-11-05T03:07:46.355Z,100765.38
2018-11-05T03:08:51.762Z,100763.26
2018-11-05T03:09:57.256Z,100765.80
2018-11-05T03:11:02.710Z,100761.45
2018-11-05T03:12:08.293Z,100762.30
2018-11-05T03:13:13.802Z,100766.06
2018-11-05T03:14:19.268Z,100760.00
2018-11-05T03:15:24.779Z,100763.83
2018-11-05T03:16:30.185Z,100766.36
2018-11-05T03:17:35.729Z,100768.87
2018-11-05T03:18:41.129Z,100765.41
2018-11-05T03:19:46.598Z,100761.25
2018-11-05T03:20:52.031Z,100758.57
2018-11-05T03:21:57.465Z,100763.27
2018-11-05T03:23:02.954Z,100753.52
2018-11-05T03:24:08.388Z,100759.13
2018-11-05T03:25:13.857Z,100753.11
2018-11-05T03:26:19.351Z,100756.96
2018-11-05T03:27:24.794Z,100756.98
2018-11-05T03:28:30.272Z,100761.59
2018-11-05T03:29:35.734Z,100756.91
2018-11-05T03:30:41.149Z,100760.75
2018-11-05T03:31:46.632Z,100758.14
2018-11-05T03:32:52.119Z,100753.89
2018-11-05T03:33:57.567Z,100749.53
2018-11-05T03:35:03.027Z,100750.02
2018-11-05T03:36:08.629Z,100746.53
2018-11-05T03:37:14.153Z,100742.34
2018-11-05T03:38:19.585Z,100742.70
2018-11-05T03:39:25.027Z,100734.63
2018-11-05T03:40:30.498Z,100735.86
2018-11-05T03:41:35.962Z,100734.13
2018-11-05T03:42:42.196Z,100725.30
2018-11-05T03:43:47.669Z,100724.85
2018-11-05T03:44:53.161Z,100729.91
2018-11-05T03:45:58.638Z,100727.38
2018-11-05T03:47:04.074Z,100724.36
2018-11-05T03:48:09.548Z,100724.87
2018-11-05T03:49:15.236Z,100724.03
2018-11-05T03:50:20.669Z,100729.05
2018-11-05T03:51:26.120Z,100727.28
2018-11-05T03:52:31.636Z,100726.94
2018-11-05T03:53:37.042Z,100719.28
2018-11-05T03:54:42.483Z,100723.06
2018-11-05T03:55:48.030Z,100723.86
2018-11-05T03:56:53.469Z,100722.48
2018-11-05T03:57:58.906Z,100722.48
2018-11-05T03:59:04.408Z,100722.58
2018-11-05T04:00:12.244Z,100724.20
2018-11-05T04:01:17.758Z,100728.50
2018-11-05T04:02:23.244Z,100728.05
2018-11-05T04:03:28.879Z,100725.91
2018-11-05T04:04:34.309Z,100722.53
2018-11-05T04:05:39.833Z,100717.75
2018-11-05T04:06:45.453Z,100714.73
2018-11-05T04:07:51.202Z,100717.28
2018-11-05T04:08:56.833Z,100716.84
2018-11-05T04:10:02.693Z,100716.80
2018-11-05T04:11:08.234Z,100718.95
2018-11-05T04:12:13.809Z,100712.48
2018-11-05T04:13:19.305Z,100709.50
2018-11-05T04:14:24.789Z,100712.86
2018-11-05T04:15:30.420Z,100710.78
2018-11-05T04:16:35.799Z,100709.20
2018-11-05T04:17:41.352Z,100708.32
2018-11-05T04:18:46.832Z,100706.11
2018-11-05T04:19:52.302Z,100705.69
2018-11-05T04:20:57.744Z,100707.63
2018-11-05T04:22:03.189Z,100707.55
2018-11-05T04:23:08.745Z,100710.48
2018-11-05T04:24:15.245Z,100705.05
2018-11-05T04:25:20.749Z,100711.76
2018-11-05T04:26:26.271Z,100720.70
2018-11-05T04:27:31.771Z,100712.63
2018-11-05T04:28:37.285Z,100710.92
2018-11-05T04:29:42.957Z,100714.78
2018-11-05T04:30:48.445Z,100713.01
2018-11-05T04:31:53.898Z,100707.09
2018-11-05T04:32:59.336Z,100702.34
2018-11-05T04:34:05.082Z,100706.26
2018-11-05T04:35:11.260Z,100701.56
2018-11-05T04:36:16.785Z,100693.06
2018-11-05T04:37:22.232Z,100701.47
2018-11-05T04:38:27.744Z,100703.23
2018-11-05T04:39:33.216Z,100703.75
2018-11-05T04:40:38.680Z,100708.00
2018-11-05T04:41:44.229Z,100713.05
2018-11-05T04:42:49.761Z,100713.92
2018-11-05T04:43:55.185Z,100710.45
2018-11-05T04:45:00.738Z,100712.17
2018-11-05T04:46:06.745Z,100707.45
2018-11-05T04:47:12.262Z,100708.73
2018-11-05T04:48:17.718Z,100704.86
2018-11-05T04:49:23.159Z,100705.30
2018-11-05T04:50:28.645Z,100708.30
2018-11-05T04:51:34.119Z,100704.73
2018-11-05T04:52:40.389Z,100713.23
2018-11-05T04:53:45.906Z,100705.17
2018-11-05T04:54:51.546Z,100703.58
2018-11-05T04:55:57.098Z,100697.64
2018-11-05T04:57:02.664Z,100700.64
2018-11-05T04:58:08.146Z,100701.02
2018-11-05T04:59:13.581Z,100692.11
2018-11-05T05:00:19.377Z,100688.20
2018-11-05T05:01:24.884Z,100688.97
2018-11-05T05:02:30.394Z,100682.11
2018-11-05T05:03:35.982Z,100679.56
2018-11-05T05:04:41.513Z,100679.95
2018-11-05T05:05:47.137Z,100677.02
2018-11-05T05:06:52.710Z,100681.22
2018-11-05T05:07:58.280Z,100674.92
2018-11-05T05:09:04.089Z,100677.86
2018-11-05T05:10:10.473Z,100680.02
2018-11-05T05:11:16.104Z,100681.73
2018-11-05T05:12:21.999Z,100679.62
2018-11-05T05:13:27.623Z,100676.22
2018-11-05T05:14:33.253Z,100688.19
2018-11-05T05:15:38.701Z,100681.35
2018-11-05T05:16:44.129Z,100676.23
2018-11-05T05:17:49.644Z,100676.56
2018-11-05T05:18:55.113Z,100675.33
2018-11-05T05:20:00.559Z,100677.86
2018-11-05T05:21:06.257Z,100672.80
2018-11-05T05:22:11.715Z,100671.97
2018-11-05T05:23:17.225Z,100665.66
2018-11-05T05:24:22.725Z,100671.58
2018-11-05T05:25:28.223Z,100669.49
2018-11-05T05:26:33.657Z,100658.36
2018-11-05T05:27:39.382Z,100667.64
2018-11-05T05:28:45.684Z,100667.66
2018-11-05T05:29:51.106Z,100670.24
2018-11-05T05:30:56.634Z,100671.13
2018-11-05T05:32:02.136Z,100670.64
2018-11-05T05:33:07.760Z,100672.41
2018-11-05T05:34:13.194Z,100664.79
2018-11-05T05:35:19.595Z,100669.05
2018-11-05T05:36:25.388Z,100664.32
2018-11-05T05:37:30.890Z,100666.39
2018-11-05T05:38:36.445Z,100659.14
2018-11-05T05:39:41.922Z,100660.47
2018-11-05T05:40:47.405Z,100659.70
2018-11-05T05:41:52.836Z,100657.52
2018-11-05T05:42:58.453Z,100656.97
2018-11-05T05:44:04.147Z,100667.17
2018-11-05T05:45:11.065Z,100667.27
2018-11-05T05:46:16.581Z,100674.98
2018-11-05T05:47:22.706Z,100673.23
2018-11-05T05:48:28.813Z,100672.05
2018-11-05T05:49:34.480Z,100673.71
2018-11-05T05:50:40.025Z,100672.77
2018-11-05T05:51:45.436Z,100665.06
2018-11-05T05:52:50.905Z,100674.45
2018-11-05T05:53:56.376Z,100672.30
2018-11-05T05:55:01.884Z,100670.59
2018-11-05T05:56:13.926Z,100677.79
2018-11-05T05:57:19.663Z,100679.92
2018-11-05T05:58:25.216Z,100680.73
2018-11-05T05:59:30.665Z,100683.75
2018-11-05T06:00:36.074Z,100686.73
2018-11-05T06:01:41.554Z,100689.20
2018-11-05T06:02:47.174Z,100684.52
2018-11-05T06:03:52.666Z,100685.05
2018-11-05T06:04:58.207Z,100685.43
2018-11-05T06:06:03.754Z,100681.64
2018-11-05T06:07:09.277Z,100682.92
2018-11-05T06:08:14.792Z,100675.64
2018-11-05T06:09:20.318Z,100675.28
2018-11-05T06:10:25.736Z,100676.51
2018-11-05T06:11:31.427Z,100684.22
2018-11-05T06:12:37.027Z,100678.64
2018-11-05T06:13:42.478Z,100683.73
2018-11-05T06:14:47.960Z,100689.55
2018-11-05T06:15:53.478Z,100687.44
2018-11-05T06:16:59.049Z,100678.55
2018-11-05T06:18:04.524Z,100671.61
2018-11-05T06:19:10.050Z,100676.64
2018-11-05T06:20:17.705Z,100677.11
2018-11-05T06:21:23.178Z,100680.81
2018-11-05T06:22:28.627Z,100674.90
2018-11-05T06:23:34.182Z,100669.45
2018-11-05T06:24:39.708Z,100676.67
2018-11-05T06:25:45.179Z,100676.12
2018-11-05T06:26:50.786Z,100675.66
2018-11-05T06:27:56.422Z,100680.84
2018-11-05T06:29:02.155Z,100691.98
2018-11-05T06:30:11.886Z,100697.06
2018-11-05T06:31:17.461Z,100689.66
2018-11-05T06:32:23.001Z,100697.41
2018-11-05T06:33:28.782Z,100701.76
2018-11-05T06:34:34.504Z,100694.58
2018-11-05T06:35:40.057Z,100689.78
2018-11-05T06:36:45.581Z,100687.23
2018-11-05T06:37:51.001Z,100689.29
2018-11-05T06:38:56.549Z,100687.96
2018-11-05T06:40:02.105Z,100694.84
2018-11-05T06:41:08.343Z,100699.18
2018-11-05T06:42:13.861Z,100689.29
2018-11-05T06:43:19.320Z,100687.98
2018-11-05T06:44:24.962Z,100686.73
2018-11-05T06:45:30.480Z,100683.31
2018-11-05T06:46:35.984Z,100683.70
2018-11-05T06:47:43.023Z,100685.06
2018-11-05T06:48:48.591Z,100684.16
2018-11-05T06:49:54.090Z,100683.68
2018-11-05T06:50:59.554Z,100686.11
2018-11-05T06:52:05.131Z,100685.69
2018-11-05T06:53:10.596Z,100689.95
2018-11-05T06:54:16.097Z,100689.03
2018-11-05T06:55:21.635Z,100694.22
2018-11-05T06:56:27.140Z,100689.66
2018-11-05T06:57:32.563Z,100688.30
2018-11-05T06:58:37.999Z,100691.33
2018-11-05T06:59:43.473Z,100691.61
2018-11-05T07:00:48.959Z,100695.06
2018-11-05T07:01:54.466Z,100700.45
2018-11-05T07:02:59.965Z,100697.61
2018-11-05T07:04:05.881Z,100701.81
2018-11-05T07:05:11.506Z,100700.87
2018-11-05T07:06:16.961Z,100705.52
2018-11-05T07:07:22.385Z,100702.28
2018-11-05T07:08:27.928Z,100703.53
2018-11-05T07:09:33.366Z,100711.13
2018-11-05T07:10:38.934Z,100714.46
2018-11-05T07:11:44.546Z,100714.44
2018-11-05T07:12:50.176Z,100717.88
2018-11-05T07:13:55.597Z,100710.29
2018-11-05T07:15:01.047Z,100709.03
2018-11-05T07:16:06.516Z,100704.67
2018-11-05T07:17:11.961Z,100705.45
2018-11-05T07:18:17.574Z,100701.65
2018-11-05T07:19:23.260Z,100701.55
2018-11-05T07:20:28.684Z,100702.69
2018-11-05T07:21:34.389Z,100694.70
2018-11-05T07:22:40.022Z,100697.65
2018-11-05T07:23:45.573Z,100691.20
2018-11-05T07:24:51.179Z,100688.63
2018-11-05T07:25:56.745Z,100686.92
2018-11-05T07:27:02.272Z,100681.78
2018-11-05T07:28:09.082Z,100684.78
2018-11-05T07:29:14.547Z,100682.55
2018-11-05T07:30:22.474Z,100680.53
2018-11-05T07:31:27.974Z,100678.39
2018-11-05T07:32:33.427Z,100681.72
2018-11-05T07:33:38.921Z,100682.45
2018-11-05T07:34:44.403Z,100685.84
2018-11-05T07:35:49.862Z,100683.78
2018-11-05T07:36:55.374Z,100681.22
2018-11-05T07:38:00.956Z,100683.64
2018-11-05T07:39:10.810Z,100681.14
2018-11-05T07:40:17.298Z,100688.37
2018-11-05T07:41:22.945Z,100678.58
2018-11-05T07:42:28.753Z,100685.00
2018-11-05T07:43:34.224Z,100681.55
2018-11-05T07:44:39.649Z,100681.55
2018-11-05T07:45:45.116Z,100683.70
2018-11-05T07:46:50.614Z,100683.61
2018-11-05T07:47:56.166Z,100688.19
2018-11-05T07:49:01.955Z,100686.47
2018-11-05T07:50:10.590Z,100688.19
2018-11-05T07:51:16.159Z,100683.50
2018-11-05T07:52:21.637Z,100684.38
2018-11-05T07:53:27.105Z,100676.15
2018-11-05T07:54:32.613Z,100677.31
2018-11-05T07:55:38.137Z,100669.19
2018-11-05T07:56:43.693Z,100675.97
2018-11-05T07:57:50.068Z,100672.97
2018-11-05T07:58:55.581Z,100669.55
2018-11-05T08:00:01.425Z,100671.98
2018-11-05T08:01:07.526Z,100672.44
2018-11-05T08:02:12.953Z,100674.96
2018-11-05T08:03:18.482Z,100679.25
2018-11-05T08:04:24.129Z,100675.41
2018-11-05T08:05:29.685Z,100679.66
2018-11-05T08:06:35.121Z,100677.08
2018-11-05T08:07:40.564Z,100685.55
2018-11-05T08:08:46.089Z,100672.70
2018-11-05T08:09:51.543Z,100673.11
2018-11-05T08:10:57.105Z,100680.34
2018-11-05T08:12:02.729Z,100682.88
2018-11-05T08:13:08.352Z,100679.39
2018-11-05T08:14:13.824Z,100678.44
2018-11-05T08:15:20.561Z,100682.69
2018-11-05T08:16:26.129Z,100687.36
2018-11-05T08:17:31.709Z,100687.27
2018-11-05T08:18:37.301Z,100688.52
2018-11-05T08:19:42.799Z,100687.53
2018-11-05T08:20:48.382Z,100682.73
2018-11-05T08:21:53.809Z,100689.58
2018-11-05T08:22:59.259Z,100687.91
2018-11-05T08:24:05.062Z,100684.39
2018-11-05T08:25:11.677Z,100689.45
2018-11-05T08:26:17.191Z,100681.06
2018-11-05T08:27:22.669Z,100681.39
2018-11-05T08:28:28.240Z,100682.19
2018-11-05T08:29:33.674Z,100674.37
2018-11-05T08:30:39.339Z,100671.75
2018-11-05T08:31:44.745Z,100667.91
2018-11-05T08:32:50.288Z,100675.20
2018-11-05T08:33:55.685Z,100669.98
2018-11-05T08:35:01.225Z,100679.11
2018-11-05T08:36:06.970Z,100680.62
2018-11-05T08:37:12.545Z,100680.69
2018-11-05T08:38:18.145Z,100684.46
2018-11-05T08:39:23.611Z,100686.06
2018-11-05T08:40:30.555Z,100689.09
2018-11-05T08:41:36.050Z,100683.66
2018-11-05T08:42:41.903Z,100684.84
2018-11-05T08:43:47.398Z,100686.48
2018-11-05T08:44:52.846Z,100680.45
2018-11-05T08:45:58.392Z,100677.06
2018-11-05T08:47:03.885Z,100677.06
2018-11-05T08:48:09.305Z,100666.76
2018-11-05T08:49:14.871Z,100675.78
2018-11-05T08:50:21.714Z,100673.64
2018-11-05T08:51:27.360Z,100670.66
2018-11-05T08:52:32.577Z,100670.13
2018-11-05T08:53:38.008Z,100669.22
2018-11-05T08:54:43.482Z,100677.83
2018-11-05T08:55:48.917Z,100678.15
2018-11-05T08:56:54.389Z,100684.62
2018-11-05T08:57:59.895Z,100680.72
2018-11-05T08:59:05.501Z,100680.45
2018-11-05T09:00:21.413Z,100668.55
2018-11-05T09:01:33.534Z,100662.18
2018-11-05T09:02:39.019Z,100657.83
2018-11-05T09:03:44.700Z,100660.45
2018-11-05T09:04:50.346Z,100656.61
2018-11-05T09:05:55.751Z,100661.80
2018-11-05T09:07:01.305Z,100661.77
2018-11-05T09:08:06.781Z,100657.80
2018-11-05T09:09:12.234Z,100662.47
2018-11-05T09:10:18.022Z,100661.22
2018-11-05T09:11:23.790Z,100662.02
2018-11-05T09:12:28.952Z,100661.22
2018-11-05T09:13:34.476Z,100661.22
2018-11-05T09:14:40.230Z,100665.41
2018-11-05T09:15:45.677Z,100663.23
2018-11-05T09:16:51.124Z,100660.26
2018-11-05T09:17:56.596Z,100666.25
2018-11-05T09:19:02.097Z,100664.80
2018-11-05T09:20:10.056Z,100670.66
2018-11-05T09:21:15.578Z,100668.09
2018-11-05T09:22:20.981Z,100669.72
2018-11-05T09:23:26.526Z,100656.88
2018-11-05T09:24:32.005Z,100657.16
2018-11-05T09:25:37.541Z,100649.48
2018-11-05T09:26:43.103Z,100645.60
2018-11-05T09:27:48.661Z,100652.80
2018-11-05T09:28:54.110Z,100655.02
2018-11-05T09:29:59.585Z,100660.14
2018-11-05T09:31:05.106Z,100654.12
2018-11-05T09:32:10.684Z,100656.95
2018-11-05T09:33:16.320Z,100660.18
2018-11-05T09:34:21.826Z,100644.28
2018-11-05T09:35:27.338Z,100642.17
2018-11-05T09:36:32.914Z,100646.77
2018-11-05T09:37:38.425Z,100646.98
2018-11-05T09:38:43.922Z,100641.02
2018-11-05T09:39:49.492Z,100638.53
2018-11-05T09:40:55.096Z,100633.03
2018-11-05T09:42:00.589Z,100638.00
2018-11-05T09:43:06.865Z,100635.38
2018-11-05T09:44:12.261Z,100643.48
2018-11-05T09:45:20.385Z,100640.91
2018-11-05T09:46:25.895Z,100637.37
2018-11-05T09:47:31.447Z,100632.14
2018-11-05T09:48:36.990Z,100630.67
2018-11-05T09:49:42.461Z,100627.73
2018-11-05T09:50:48.026Z,100623.81
2018-11-05T09:51:53.422Z,100624.19
2018-11-05T09:52:59.069Z,100632.94
2018-11-05T09:54:04.869Z,100633.72
2018-11-05T09:55:11.385Z,100634.14
2018-11-05T09:56:16.918Z,100628.94
2018-11-05T09:57:22.389Z,100629.99
2018-11-05T09:58:27.901Z,100631.23
2018-11-05T09:59:33.429Z,100629.47
2018-11-05T10:00:40.428Z,100627.24
2018-11-05T10:01:45.947Z,100631.13
2018-11-05T10:02:56.838Z,100629.77
2018-11-05T10:04:02.427Z,100620.30
2018-11-05T10:05:08.105Z,100624.56
2018-11-05T10:06:13.336Z,100621.32
2018-11-05T10:07:18.951Z,100623.43
2018-11-05T10:08:24.484Z,100617.59
2018-11-05T10:09:29.981Z,100618.00
2018-11-05T10:10:35.570Z,100608.73
2018-11-05T10:11:41.013Z,100610.08
2018-11-05T10:12:46.755Z,100601.11
2018-11-05T10:13:52.440Z,100611.36
2018-11-05T10:14:59.900Z,100607.86
2018-11-05T10:16:11.016Z,100603.83
2018-11-05T10:17:16.553Z,100604.17
2018-11-05T10:18:22.037Z,100603.75
2018-11-05T10:19:27.465Z,100604.51
2018-11-05T10:20:32.930Z,100607.07
2018-11-05T10:21:38.531Z,100598.89
2018-11-05T10:22:44.603Z,100596.21
2018-11-05T10:23:50.104Z,100592.33
2018-11-05T10:24:56.033Z,100596.47
2018-11-05T10:26:01.522Z,100595.48
2018-11-05T10:27:07.124Z,100600.62
2018-11-05T10:28:12.699Z,100601.03
2018-11-05T10:29:18.117Z,100593.42
2018-11-05T10:30:25.983Z,100594.40
2018-11-05T10:31:31.529Z,100598.40
2018-11-05T10:32:36.984Z,100602.70
2018-11-05T10:33:44.697Z,100593.91
2018-11-05T10:34:50.222Z,100600.28
2018-11-05T10:35:56.949Z,100606.24
2018-11-05T10:37:02.413Z,100605.79
2018-11-05T10:38:07.980Z,100613.10
2018-11-05T10:39:13.596Z,100611.14
2018-11-05T10:40:20.091Z,100611.59
2018-11-05T10:41:25.497Z,100609.55
2018-11-05T10:42:31.062Z,100601.14
2018-11-05T10:43:36.597Z,100603.75
2018-11-05T10:44:42.065Z,100598.97
2018-11-05T10:45:47.551Z,100596.73
2018-11-05T10:46:52.987Z,100599.69
2018-11-05T10:47:58.469Z,100604.36
2018-11-05T10:49:04.050Z,100606.47
2018-11-05T10:50:11.628Z,100608.27
2018-11-05T10:51:17.263Z,100608.39
2018-11-05T10:52:22.656Z,100611.09
2018-11-05T10:53:28.357Z,100607.11
2018-11-05T10:54:33.845Z,100605.75
2018-11-05T10:55:39.302Z,100609.25
2018-11-05T10:56:44.772Z,100609.67
2018-11-05T10:57:50.668Z,100610.88
2018-11-05T10:58:56.155Z,100611.63
2018-11-05T11:00:01.674Z,100609.86
2018-11-05T11:01:14.492Z,100605.11
2018-11-05T11:02:25.010Z,100598.81
2018-11-05T11:03:35.950Z,100603.37
2018-11-05T11:04:41.392Z,100600.70
2018-11-05T11:05:46.876Z,100591.73
2018-11-05T11:06:52.333Z,100589.95
2018-11-05T11:07:58.740Z,100588.30
2018-11-05T11:09:04.794Z,100586.22
2018-11-05T11:10:10.276Z,100589.16
2018-11-05T11:11:15.968Z,100593.58
2018-11-05T11:12:21.530Z,100589.69
2018-11-05T11:13:27.071Z,100593.23
2018-11-05T11:14:32.538Z,100590.22
2018-11-05T11:15:38.013Z,100589.84
2018-11-05T11:16:43.544Z,100593.20
2018-11-05T11:17:49.092Z,100587.05
2018-11-05T11:18:54.581Z,100586.60
2018-11-05T11:20:00.054Z,100582.67
2018-11-05T11:21:06.666Z,100576.23
2018-11-05T11:22:12.276Z,100582.64
2018-11-05T11:23:17.892Z,100577.89
2018-11-05T11:24:23.437Z,100583.47
2018-11-05T11:25:28.958Z,100583.20
2018-11-05T11:26:34.455Z,100583.65
2018-11-05T11:27:39.925Z,100588.97
2018-11-05T11:28:45.556Z,100589.35
2018-11-05T11:29:50.938Z,100592.17
2018-11-05T11:30:56.725Z,100590.55
2018-11-05T11:32:02.281Z,100580.14
2018-11-05T11:33:07.993Z,100576.79
2018-11-05T11:34:13.650Z,100567.73
2018-11-05T11:35:19.203Z,100571.88
2018-11-05T11:36:24.758Z,100570.52
2018-11-05T11:37:30.489Z,100579.12
2018-11-05T11:38:36.230Z,100588.77
2018-11-05T11:39:41.686Z,100597.03
2018-11-05T11:40:47.175Z,100600.50
2018-11-05T11:41:52.682Z,100598.77
2018-11-05T11:42:59.052Z,100599.52
2018-11-05T11:44:05.074Z,100594.39
2018-11-05T11:45:11.897Z,100590.99
2018-11-05T11:46:17.549Z,100589.75
2018-11-05T11:47:23.120Z,100588.09
2018-11-05T11:48:28.585Z,100589.37
2018-11-05T11:49:34.051Z,100595.75
2018-11-05T11:50:39.482Z,100589.13
2018-11-05T11:51:44.912Z,100581.88
2018-11-05T11:52:50.797Z,100584.10
2018-11-05T11:53:56.140Z,100585.27
2018-11-05T11:55:01.606Z,100580.94
2018-11-05T11:56:07.102Z,100586.67
2018-11-05T11:57:12.613Z,100581.53
2018-11-05T11:58:18.205Z,100578.86
2018-11-05T11:59:23.733Z,100577.95
2018-11-05T12:00:29.264Z,100574.59
2018-11-05T12:01:39.632Z,100568.98
2018-11-05T12:02:45.477Z,100561.81
2018-11-05T12:03:51.184Z,100559.37
2018-11-05T12:04:56.831Z,100558.55
2018-11-05T12:06:02.220Z,100556.81
2018-11-05T12:07:08.128Z,100556.43
2018-11-05T12:08:13.670Z,100553.70
2018-11-05T12:09:21.334Z,100551.14
2018-11-05T12:10:26.915Z,100550.66
2018-11-05T12:11:32.321Z,100549.07
2018-11-05T12:12:37.800Z,100548.28
2018-11-05T12:13:43.206Z,100544.02
2018-11-05T12:14:48.951Z,100542.96
2018-11-05T12:15:54.457Z,100542.05
2018-11-05T12:17:00.065Z,100541.64
2018-11-05T12:18:05.802Z,100536.96
2018-11-05T12:19:11.265Z,100535.52
2018-11-05T12:20:24.477Z,100533.28
2018-11-05T12:21:29.925Z,100532.63
2018-11-05T12:22:35.377Z,100527.75
2018-11-05T12:23:40.800Z,100521.83
2018-11-05T12:24:46.317Z,100523.64
2018-11-05T12:25:51.856Z,100518.52
2018-11-05T12:26:57.404Z,100520.59
2018-11-05T12:28:02.945Z,100522.13
2018-11-05T12:29:08.466Z,100515.87
2018-11-05T12:30:17.873Z,100517.11